createdAt,value
2018-03-03T00:01:08.540Z,130.80
2018-03-03T00:03:37.263Z,123.10
2018-03-03T00:06:04.722Z,126.83
2018-03-03T00:08:32.978Z,113.57
2018-03-03T00:11:02.340Z,119.93
2018-03-03T00:13:29.797Z,114.73
2018-03-03T00:15:57.257Z,115.27
2018-03-03T00:18:25.376Z,116.53
2018-03-03T00:20:52.831Z,111.60
2018-03-03T00:23:20.728Z,114.60
2018-03-03T00:25:48.207Z,111.47
2018-03-03T00:28:15.661Z,107.77
2018-03-03T00:30:43.125Z,110.37
2018-03-03T00:33:10.996Z,107.80
2018-03-03T00:35:39.641Z,107.83
2018-03-03T00:38:07.109Z,102.50
2018-03-03T00:40:35.745Z,118.20
2018-03-03T00:43:03.641Z,114.43
2018-03-03T00:45:31.108Z,109.47
2018-03-03T00:47:58.562Z,111.77
2018-03-03T00:50:26.022Z,117.37
2018-03-03T00:52:53.483Z,111.00
2018-03-03T00:55:20.946Z,115.20
2018-03-03T00:57:48.667Z,107.20
2018-03-03T01:00:16.154Z,114.83
2018-03-03T01:02:44.161Z,113.77
2018-03-03T01:05:12.386Z,114.80
2018-03-03T01:07:39.862Z,109.53
2018-03-03T01:10:07.323Z,112.47
2018-03-03T01:12:34.790Z,115.60
2018-03-03T01:15:02.265Z,123.77
2018-03-03T01:17:30.760Z,110.37
2018-03-03T01:19:58.978Z,123.47
2018-03-03T01:22:26.446Z,117.47
2018-03-03T01:24:53.953Z,117.90
2018-03-03T01:27:21.358Z,117.27
2018-03-03T01:29:51.378Z,112.40
2018-03-03T01:32:19.102Z,124.97
2018-03-03T01:34:46.563Z,121.63
2018-03-03T01:37:14.014Z,122.13
2018-03-03T01:39:41.485Z,125.23
2018-03-03T01:42:08.938Z,122.23
2018-03-03T01:44:36.403Z,123.83
2018-03-03T01:47:03.865Z,114.13
2018-03-03T01:49:31.338Z,122.10
2018-03-03T01:51:58.798Z,129.27
2018-03-03T01:54:26.261Z,133.43
2018-03-03T01:56:55.320Z,133.30
2018-03-03T01:59:22.777Z,133.10
2018-03-03T02:01:50.497Z,136.13
2018-03-03T02:04:18.721Z,136.53
2018-03-03T02:06:46.181Z,136.90
2018-03-03T02:09:13.645Z,132.77
2018-03-03T02:11:41.670Z,128.70
2018-03-03T02:14:10.429Z,129.10
2018-03-03T02:16:38.655Z,134.37
2018-03-03T02:19:06.666Z,139.80
2018-03-03T02:21:34.906Z,125.27
2018-03-03T02:24:03.671Z,121.53
2018-03-03T02:26:31.397Z,117.00
2018-03-03T02:28:59.617Z,122.97
2018-03-03T02:31:27.072Z,123.47
2018-03-03T02:33:54.536Z,130.73
2018-03-03T02:36:21.997Z,134.63
2018-03-03T02:38:49.462Z,130.40
2018-03-03T02:41:16.929Z,132.10
2018-03-03T02:43:44.376Z,121.40
2018-03-03T02:46:11.833Z,133.13
2018-03-03T02:48:39.290Z,139.73
2018-03-03T02:51:07.157Z,125.47
2018-03-03T02:53:34.618Z,122.90
2018-03-03T02:56:02.901Z,120.53
2018-03-03T02:58:31.959Z,121.73
2018-03-03T03:00:59.413Z,130.20
2018-03-03T03:03:26.874Z,124.80
2018-03-03T03:05:55.130Z,130.87
2018-03-03T03:08:22.645Z,131.43
2018-03-03T03:10:50.874Z,134.73
2018-03-03T03:13:18.329Z,142.50
2018-03-03T03:15:46.638Z,142.80
2018-03-03T03:18:14.325Z,140.20
2018-03-03T03:20:42.547Z,129.73
2018-03-03T03:23:10.014Z,130.90
2018-03-03T03:25:37.487Z,130.70
2018-03-03T03:28:04.941Z,136.57
2018-03-03T03:30:32.813Z,135.87
2018-03-03T03:33:01.688Z,132.77
2018-03-03T03:35:31.609Z,139.90
2018-03-03T03:37:59.758Z,144.00
2018-03-03T03:40:27.581Z,125.70
2018-03-03T03:42:55.054Z,139.53
2018-03-03T03:45:22.518Z,141.10
2018-03-03T03:47:49.970Z,136.80
2018-03-03T03:50:17.441Z,137.37
2018-03-03T03:52:46.066Z,136.40
2018-03-03T03:55:13.513Z,137.37
2018-03-03T03:57:40.970Z,126.33
2018-03-03T04:00:08.428Z,134.00
2018-03-03T04:02:35.890Z,129.40
2018-03-03T04:05:04.129Z,127.57
2018-03-03T04:07:31.586Z,133.80
2018-03-03T04:09:59.042Z,135.50
2018-03-03T04:12:26.936Z,126.57
2018-03-03T04:14:54.392Z,137.73
2018-03-03T04:17:21.865Z,141.57
2018-03-03T04:19:50.094Z,132.97
2018-03-03T04:22:17.554Z,132.57
2018-03-03T04:24:45.078Z,128.13
2018-03-03T04:27:12.532Z,126.87
2018-03-03T04:29:40.421Z,134.63
2018-03-03T04:32:08.457Z,133.87
2018-03-03T04:34:36.182Z,142.23
2018-03-03T04:37:03.639Z,135.40
2018-03-03T04:39:31.088Z,127.47
2018-03-03T04:41:58.554Z,130.37
2018-03-03T04:44:26.321Z,131.43
2018-03-03T04:46:54.938Z,143.07
2018-03-03T04:49:23.163Z,127.87
2018-03-03T04:51:50.628Z,134.73
2018-03-03T04:54:18.087Z,145.83
2018-03-03T04:56:45.542Z,130.63
2018-03-03T04:59:28.827Z,138.03
2018-03-03T05:02:07.438Z,135.80
2018-03-03T05:04:44.139Z,128.50
2018-03-03T05:10:14.392Z,138.13
2018-03-03T05:12:42.629Z,132.10
2018-03-03T05:15:19.993Z,135.40
2018-03-03T05:17:53.255Z,143.07
2018-03-03T05:23:29.840Z,123.97
2018-03-03T05:26:02.995Z,137.60
2018-03-03T05:31:51.164Z,138.20
2018-03-03T05:34:24.850Z,141.33
2018-03-03T05:37:12.225Z,128.43
2018-03-03T05:42:46.153Z,131.47
2018-03-03T05:45:16.217Z,137.47
2018-03-03T05:47:58.563Z,126.87
2018-03-03T05:50:31.764Z,146.77
2018-03-03T05:53:04.814Z,144.57
2018-03-03T05:55:38.054Z,136.23
2018-03-03T05:58:11.920Z,137.10
2018-03-03T06:00:45.033Z,140.20
2018-03-03T06:06:30.973Z,143.40
2018-03-03T06:08:58.429Z,136.10
2018-03-03T06:11:25.885Z,121.53
2018-03-03T06:13:53.795Z,132.77
2018-03-03T06:16:21.253Z,143.10
2018-03-03T06:18:50.194Z,140.50
2018-03-03T06:21:18.418Z,132.67
2018-03-03T06:23:46.380Z,141.87
2018-03-03T06:26:14.386Z,139.53
2018-03-03T06:28:41.866Z,139.07
2018-03-03T06:31:09.902Z,144.33
2018-03-03T06:33:37.373Z,142.57
2018-03-03T06:36:06.214Z,132.90
2018-03-03T06:38:34.199Z,127.57
2018-03-03T06:41:02.042Z,126.43
2018-03-03T06:43:29.490Z,124.40
2018-03-03T06:45:56.966Z,131.13
2018-03-03T06:48:24.422Z,128.70
2018-03-03T06:50:51.884Z,124.40
2018-03-03T06:53:20.086Z,124.17
2018-03-03T06:55:47.542Z,120.40
2018-03-03T06:58:15.350Z,127.27
2018-03-03T07:00:43.222Z,124.70
2018-03-03T07:03:11.001Z,103.67
2018-03-03T07:08:14.017Z,117.17
2018-03-03T07:10:41.513Z,113.97
2018-03-03T07:13:09.740Z,107.73
2018-03-03T07:15:39.211Z,111.97
2018-03-03T07:18:07.121Z,110.53
2018-03-03T07:20:35.200Z,106.77
2018-03-03T07:23:03.218Z,108.73
2018-03-03T07:25:31.109Z,113.10
2018-03-03T07:27:58.561Z,110.77
2018-03-03T07:30:26.029Z,109.57
2018-03-03T07:32:53.477Z,101.33
2018-03-03T07:35:20.957Z,103.13
2018-03-03T07:37:48.424Z,105.13
2018-03-03T07:40:16.306Z,106.93
2018-03-03T07:42:44.529Z,96.87
2018-03-03T07:45:12.009Z,102.80
2018-03-03T07:47:40.009Z,103.13
2018-03-03T07:50:08.233Z,92.60
2018-03-03T07:52:36.254Z,98.50
2018-03-03T07:55:05.037Z,99.90
2018-03-03T07:57:33.267Z,95.10
2018-03-03T08:00:00.719Z,96.20
2018-03-03T08:02:28.176Z,99.10
2018-03-03T08:04:55.882Z,95.87
2018-03-03T08:07:24.106Z,97.27
2018-03-03T08:09:51.964Z,95.03
2018-03-03T08:12:19.409Z,94.23
2018-03-03T08:14:47.277Z,96.13
2018-03-03T08:17:15.198Z,98.83
2018-03-03T08:19:42.646Z,97.17
2018-03-03T08:22:10.117Z,83.13
2018-03-03T08:24:39.073Z,84.50
2018-03-03T08:27:06.527Z,92.30
2018-03-03T08:29:34.547Z,91.77
2018-03-03T08:32:02.757Z,93.47
2018-03-03T08:34:30.205Z,86.93
2018-03-03T08:37:00.254Z,88.07
2018-03-03T08:39:27.713Z,100.93
2018-03-03T08:41:55.184Z,93.37
2018-03-03T08:44:23.083Z,91.50
2018-03-03T08:46:50.528Z,92.20
2018-03-03T08:49:18.756Z,94.13
2018-03-03T08:51:46.207Z,90.53
2018-03-03T08:54:13.662Z,89.33
2018-03-03T08:56:41.117Z,95.77
2018-03-03T08:59:08.577Z,98.97
2018-03-03T09:01:36.033Z,100.53
2018-03-03T09:04:04.262Z,103.37
2018-03-03T09:06:32.487Z,102.60
2018-03-03T09:08:59.933Z,97.13
2018-03-03T09:11:27.972Z,117.97
2018-03-03T09:13:55.426Z,99.00
2018-03-03T09:16:22.886Z,101.20
2018-03-03T09:18:50.882Z,97.37
2018-03-03T09:21:18.345Z,101.33
2018-03-03T09:23:46.617Z,132.47
2018-03-03T09:26:14.081Z,119.93
2018-03-03T09:28:41.531Z,97.00
2018-03-03T09:31:08.978Z,93.87
2018-03-03T09:33:36.469Z,106.37
2018-03-03T09:36:03.963Z,95.80
2018-03-03T09:38:31.369Z,92.13
2018-03-03T09:40:58.820Z,91.73
2018-03-03T09:43:27.526Z,100.67
2018-03-03T09:45:54.974Z,96.30
2018-03-03T09:48:23.869Z,97.53
2018-03-03T09:50:51.326Z,101.23
2018-03-03T09:53:18.792Z,98.83
2018-03-03T09:55:47.023Z,97.57
2018-03-03T09:58:14.910Z,101.70
2018-03-03T10:00:42.936Z,97.07
2018-03-03T10:03:10.386Z,97.20
2018-03-03T10:05:38.460Z,97.13
2018-03-03T10:08:05.920Z,94.27
2018-03-03T10:10:33.374Z,101.53
2018-03-03T10:13:00.825Z,99.50
2018-03-03T10:15:28.281Z,94.77
2018-03-03T10:17:56.125Z,94.20
2018-03-03T10:20:25.125Z,98.83
2018-03-03T10:22:53.534Z,102.23
2018-03-03T10:25:21.597Z,91.50
2018-03-03T10:27:49.057Z,96.67
2018-03-03T10:30:16.510Z,98.07
2018-03-03T10:32:43.977Z,97.70
2018-03-03T10:35:11.435Z,97.73
2018-03-03T10:37:38.904Z,100.17
2018-03-03T10:40:06.357Z,99.10
2018-03-03T10:42:33.813Z,100.87
2018-03-03T10:45:01.337Z,98.27
2018-03-03T10:47:28.789Z,94.40
2018-03-03T10:49:57.393Z,91.70
2018-03-03T10:52:24.849Z,91.67
2018-03-03T10:54:52.308Z,91.03
2018-03-03T10:57:19.762Z,91.63
2018-03-03T10:59:47.642Z,90.77
2018-03-03T11:02:15.551Z,92.47
2018-03-03T11:04:43.773Z,87.63
2018-03-03T11:07:11.226Z,93.20
2018-03-03T11:09:39.046Z,97.17
2018-03-03T11:12:07.272Z,93.00
2018-03-03T11:14:34.730Z,94.27
2018-03-03T11:17:02.181Z,87.53
2018-03-03T11:19:29.646Z,92.47
2018-03-03T11:21:57.113Z,96.23
2018-03-03T11:24:24.794Z,87.50
2018-03-03T11:26:52.551Z,92.87
2018-03-03T11:29:20.001Z,86.30
2018-03-03T11:31:47.449Z,88.73
2018-03-03T11:34:14.913Z,89.63
2018-03-03T11:36:42.806Z,95.47
2018-03-03T11:39:11.030Z,89.90
2018-03-03T11:41:38.793Z,84.90
2018-03-03T11:44:06.266Z,88.20
2018-03-03T11:46:34.406Z,91.73
2018-03-03T11:49:02.533Z,89.17
2018-03-03T11:51:30.001Z,89.43
2018-03-03T11:53:58.209Z,90.60
2018-03-03T11:56:25.669Z,91.37
2018-03-03T11:58:53.530Z,92.90
2018-03-03T12:01:21.401Z,87.97
2018-03-03T12:03:50.758Z,89.57
2018-03-03T12:06:18.226Z,89.50
2018-03-03T12:08:48.292Z,93.60
2018-03-03T12:11:15.752Z,85.30
2018-03-03T12:13:43.331Z,86.53
2018-03-03T12:16:10.788Z,93.90
2018-03-03T12:18:38.237Z,84.53
2018-03-03T12:21:05.706Z,85.07
2018-03-03T12:23:33.267Z,86.57
2018-03-03T12:26:00.717Z,86.73
2018-03-03T12:28:28.603Z,93.50
2018-03-03T12:30:56.847Z,86.20
2018-03-03T12:33:24.322Z,89.40
2018-03-03T12:35:51.773Z,92.33
2018-03-03T12:38:19.225Z,93.37
2018-03-03T12:40:46.705Z,104.53
2018-03-03T12:43:14.922Z,96.67
2018-03-03T12:45:43.593Z,93.67
2018-03-03T12:48:11.791Z,99.00
2018-03-03T12:50:39.244Z,90.87
2018-03-03T12:53:07.453Z,98.13
2018-03-03T12:55:34.929Z,88.60
2018-03-03T12:58:03.142Z,87.40
2018-03-03T13:00:30.597Z,86.63
2018-03-03T13:02:58.164Z,100.03
2018-03-03T13:05:25.645Z,89.83
2018-03-03T13:07:53.513Z,98.53
2018-03-03T13:10:20.991Z,89.00
2018-03-03T13:12:49.262Z,87.07
2018-03-03T13:15:16.650Z,90.53
2018-03-03T13:17:44.112Z,103.33
2018-03-03T13:20:11.575Z,89.03
2018-03-03T13:22:39.020Z,84.80
2018-03-03T13:25:06.802Z,84.67
2018-03-03T13:27:34.270Z,82.60
2018-03-03T13:30:02.129Z,89.73
2018-03-03T13:32:29.638Z,76.47
2018-03-03T13:34:57.849Z,76.57
2018-03-03T13:37:25.346Z,88.93
2018-03-03T13:39:53.071Z,85.50
2018-03-03T13:42:20.513Z,83.73
2018-03-03T13:44:47.970Z,80.00
2018-03-03T13:47:15.424Z,75.17
2018-03-03T13:49:42.881Z,82.07
2018-03-03T13:52:10.334Z,83.90
2018-03-03T13:54:37.923Z,76.13
2018-03-03T13:57:20.125Z,74.53
2018-03-03T13:59:47.575Z,73.60
2018-03-03T14:02:15.038Z,75.60
2018-03-03T14:04:43.125Z,76.83
2018-03-03T14:07:10.578Z,79.07
2018-03-03T14:09:38.029Z,72.17
2018-03-03T14:12:06.030Z,75.57
2018-03-03T14:14:36.381Z,68.10
2018-03-03T14:17:03.831Z,78.23
2018-03-03T14:19:31.720Z,78.33
2018-03-03T14:22:00.448Z,77.07
2018-03-03T14:24:27.891Z,72.20
2018-03-03T14:26:55.341Z,74.97
2018-03-03T14:29:22.793Z,70.77
2018-03-03T14:31:50.973Z,78.10
2018-03-03T14:34:18.425Z,80.77
2018-03-03T14:36:45.912Z,78.33
2018-03-03T14:39:14.137Z,75.63
2018-03-03T14:41:41.586Z,76.27
2018-03-03T14:44:09.051Z,83.87
2018-03-03T14:46:36.522Z,74.13
2018-03-03T14:49:04.520Z,78.93
2018-03-03T14:51:32.745Z,71.23
2018-03-03T14:54:00.204Z,79.17
2018-03-03T14:56:27.695Z,86.53
2018-03-03T14:58:55.232Z,81.80
2018-03-03T15:01:23.111Z,85.37
2018-03-03T15:03:50.561Z,73.53
2018-03-03T15:06:18.026Z,82.00
2018-03-03T15:08:45.639Z,85.13
2018-03-03T15:11:13.097Z,79.63
2018-03-03T15:13:40.554Z,78.60
2018-03-03T15:16:08.010Z,77.97
2018-03-03T15:18:35.471Z,75.10
2018-03-03T15:21:02.928Z,78.50
2018-03-03T15:23:30.378Z,75.47
2018-03-03T15:25:58.379Z,75.13
2018-03-03T15:28:25.833Z,81.67
2018-03-03T15:30:53.290Z,79.93
2018-03-03T15:33:20.814Z,81.93
2018-03-03T15:35:48.731Z,84.53
2018-03-03T15:38:16.181Z,85.70
2018-03-03T15:40:44.125Z,80.80
2018-03-03T15:43:11.581Z,85.17
2018-03-03T15:45:39.043Z,89.23
2018-03-03T15:48:06.498Z,85.90
2018-03-03T15:50:33.958Z,85.90
2018-03-03T15:53:01.405Z,86.87
2018-03-03T15:55:28.864Z,88.63
2018-03-03T15:57:56.318Z,85.07
2018-03-03T16:00:23.766Z,97.17
2018-03-03T16:02:51.214Z,86.03
2018-03-03T16:05:18.765Z,92.23
2018-03-03T16:07:46.210Z,91.40
2018-03-03T16:10:13.673Z,91.07
2018-03-03T16:12:41.116Z,90.67
2018-03-03T16:15:08.594Z,91.40
2018-03-03T16:17:36.056Z,98.23
2018-03-03T16:20:03.501Z,85.27
2018-03-03T16:22:31.379Z,98.97
2018-03-03T16:24:58.834Z,94.00
2018-03-03T16:27:26.282Z,88.53
2018-03-03T16:29:53.738Z,89.07
2018-03-03T16:32:21.202Z,91.03
2018-03-03T16:34:48.657Z,93.47
2018-03-03T16:37:16.106Z,86.73
2018-03-03T16:39:43.566Z,94.03
2018-03-03T16:42:11.529Z,97.90
2018-03-03T16:44:38.992Z,95.13
2018-03-03T16:47:06.453Z,101.07
2018-03-03T16:49:33.910Z,103.03
2018-03-03T16:52:01.361Z,99.50
2018-03-03T16:54:28.824Z,102.70
2018-03-03T16:56:56.272Z,99.73
2018-03-03T16:59:23.727Z,106.53
2018-03-03T17:01:51.585Z,99.87
2018-03-03T17:04:19.028Z,101.53
2018-03-03T17:06:46.931Z,102.77
2018-03-03T17:09:14.394Z,106.23
2018-03-03T17:11:41.862Z,101.40
2018-03-03T17:14:09.322Z,103.63
2018-03-03T17:16:36.779Z,106.20
2018-03-03T17:19:04.237Z,100.53
2018-03-03T17:21:31.700Z,100.63
2018-03-03T17:23:59.166Z,105.17
2018-03-03T17:26:27.668Z,111.00
2018-03-03T17:28:55.881Z,108.07
2018-03-03T17:31:23.350Z,107.80
2018-03-03T17:33:52.127Z,109.43
2018-03-03T17:36:19.594Z,111.67
2018-03-03T17:38:47.117Z,109.07
2018-03-03T17:41:14.578Z,112.13
2018-03-03T17:43:42.466Z,109.50
2018-03-03T17:46:11.588Z,117.73
2018-03-03T17:48:39.045Z,108.77
2018-03-03T17:51:06.938Z,112.60
2018-03-03T17:53:34.398Z,109.50
2018-03-03T17:56:02.395Z,107.63
2018-03-03T17:58:30.097Z,106.67
2018-03-03T18:00:58.120Z,120.20
2018-03-03T18:03:25.801Z,116.23
2018-03-03T18:05:53.267Z,114.77
2018-03-03T18:08:22.299Z,117.77
2018-03-03T18:10:50.526Z,116.83
2018-03-03T18:13:19.428Z,119.77
2018-03-03T18:15:47.319Z,119.13
2018-03-03T18:18:16.072Z,113.33
2018-03-03T18:20:44.250Z,108.23
2018-03-03T18:23:11.701Z,117.00
2018-03-03T18:25:39.870Z,99.53
2018-03-03T18:28:13.975Z,113.30
2018-03-03T18:30:41.434Z,108.67
2018-03-03T18:33:08.894Z,109.00
2018-03-03T18:35:36.365Z,109.23
2018-03-03T18:38:03.819Z,104.40
2018-03-03T18:40:31.274Z,104.43
2018-03-03T18:42:59.262Z,113.53
2018-03-03T18:45:27.485Z,107.40
2018-03-03T18:47:54.953Z,123.23
2018-03-03T18:50:22.418Z,112.17
2018-03-03T18:52:51.402Z,107.70
2018-03-03T18:55:19.182Z,109.07
2018-03-03T18:57:47.185Z,108.77
2018-03-03T19:00:15.409Z,100.17
2018-03-03T19:02:42.873Z,102.57
2018-03-03T19:05:10.332Z,107.27
2018-03-03T19:07:37.827Z,107.00
2018-03-03T19:10:06.044Z,111.40
2018-03-03T19:12:33.520Z,112.10
2018-03-03T19:15:00.986Z,108.83
2018-03-03T19:17:28.797Z,111.50
2018-03-03T19:19:56.254Z,103.33
2018-03-03T19:22:24.253Z,105.77
2018-03-03T19:24:51.714Z,101.90
2018-03-03T19:27:19.172Z,110.97
2018-03-03T19:29:46.660Z,110.67
2018-03-03T19:32:14.894Z,110.27
2018-03-03T19:34:42.344Z,108.33
2018-03-03T19:37:10.294Z,108.73
2018-03-03T19:39:37.747Z,102.40
2018-03-03T19:42:05.198Z,114.77
2018-03-03T19:44:32.674Z,107.10
2018-03-03T19:47:00.835Z,115.57
2018-03-03T19:49:28.283Z,110.23
2018-03-03T19:51:56.174Z,113.50
2018-03-03T19:54:23.643Z,118.20
2018-03-03T19:56:51.114Z,111.50
2018-03-03T19:59:19.303Z,121.33
2018-03-03T20:01:46.753Z,117.47
2018-03-03T20:04:14.226Z,102.73
2018-03-03T20:06:42.450Z,118.97
2018-03-03T20:09:09.909Z,115.73
2018-03-03T20:11:37.980Z,111.07
2018-03-03T20:14:05.834Z,118.77
2018-03-03T20:16:33.307Z,116.03
2018-03-03T20:19:01.035Z,115.07
2018-03-03T20:21:29.283Z,120.13
2018-03-03T20:23:58.141Z,122.77
2018-03-03T20:26:26.165Z,118.30
2018-03-03T20:28:56.561Z,119.23
2018-03-03T20:31:24.170Z,117.30
2018-03-03T20:33:52.002Z,120.30
2018-03-03T20:36:20.636Z,124.93
2018-03-03T20:38:48.097Z,131.13
2018-03-03T20:41:15.555Z,126.57
2018-03-03T20:43:44.006Z,135.93
2018-03-03T20:46:11.466Z,128.87
2018-03-03T20:48:38.924Z,131.67
2018-03-03T20:51:06.377Z,118.77
2018-03-03T20:53:33.835Z,125.37
2018-03-03T20:56:01.298Z,120.70
2018-03-03T20:58:28.754Z,136.67
2018-03-03T21:00:56.214Z,126.17
2018-03-03T21:03:23.663Z,131.87
2018-03-03T21:05:51.126Z,135.90
2018-03-03T21:08:18.581Z,137.40
2018-03-03T21:10:46.559Z,145.77
2018-03-03T21:13:14.139Z,139.60
2018-03-03T21:15:41.598Z,151.37
2018-03-03T21:18:09.060Z,136.43
2018-03-03T21:20:36.606Z,147.80
2018-03-03T21:23:04.068Z,138.40
2018-03-03T21:25:31.538Z,131.97
2018-03-03T21:27:59.010Z,141.63
2018-03-03T21:30:28.249Z,135.10
2018-03-03T21:32:55.879Z,132.77
2018-03-03T21:35:23.352Z,138.77
2018-03-03T21:37:50.823Z,131.77
2018-03-03T21:40:18.334Z,135.13
2018-03-03T21:42:46.558Z,129.00
2018-03-03T21:45:15.942Z,147.97
2018-03-03T21:47:43.397Z,140.07
2018-03-03T21:50:10.858Z,141.30
2018-03-03T21:52:38.322Z,130.83
2018-03-03T21:55:05.789Z,129.37
2018-03-03T21:57:33.250Z,136.30
2018-03-03T22:00:00.730Z,132.67
2018-03-03T22:02:28.181Z,136.90
2018-03-03T22:04:55.663Z,126.47
2018-03-03T22:07:23.902Z,136.87
2018-03-03T22:09:51.384Z,130.60
2018-03-03T22:12:19.632Z,138.87
2018-03-03T22:14:47.479Z,134.97
2018-03-03T22:17:15.288Z,138.73
2018-03-03T22:19:42.752Z,143.87
2018-03-03T22:22:10.982Z,126.50
2018-03-03T22:24:38.456Z,142.60
2018-03-03T22:27:05.936Z,145.70
2018-03-03T22:29:34.175Z,141.87
2018-03-03T22:32:01.662Z,123.77
2018-03-03T22:34:29.929Z,134.97
2018-03-03T22:36:57.393Z,144.63
2018-03-03T22:39:25.641Z,145.13
2018-03-03T22:41:53.850Z,140.83
2018-03-03T22:44:22.200Z,132.13
2018-03-03T22:46:49.654Z,143.83
2018-03-03T22:49:17.117Z,143.17
2018-03-03T22:51:45.491Z,149.17
2018-03-03T22:54:13.523Z,137.20
2018-03-03T22:56:40.977Z,142.10
2018-03-03T22:59:09.122Z,144.70
2018-03-03T23:01:36.591Z,147.13
2018-03-03T23:04:04.633Z,130.60
2018-03-03T23:06:32.873Z,134.63
2018-03-03T23:09:01.127Z,132.77
2018-03-03T23:11:28.923Z,151.40
2018-03-03T23:13:56.374Z,141.40
2018-03-03T23:16:24.014Z,145.50
2018-03-03T23:18:51.464Z,138.60
2018-03-03T23:21:18.946Z,144.50
2018-03-03T23:23:46.410Z,154.53
2018-03-03T23:26:13.865Z,155.70
2018-03-03T23:28:41.900Z,145.40
2018-03-03T23:31:09.366Z,148.33
2018-03-03T23:33:36.835Z,141.50
2018-03-03T23:36:04.300Z,154.53
2018-03-03T23:38:31.762Z,142.03
2018-03-03T23:40:59.221Z,151.33
2018-03-03T23:43:26.692Z,148.63
2018-03-03T23:45:54.974Z,158.10
2018-03-03T23:48:23.697Z,157.40
2018-03-03T23:50:51.439Z,157.17
2018-03-03T23:53:19.682Z,152.87
2018-03-03T23:55:47.709Z,133.87
2018-03-03T23:58:15.169Z,155.33
